createdAt,value
2022-11-05T00:00:43.242Z,1006.57
2022-11-05T00:01:43.273Z,1006.57
2022-11-05T00:02:43.221Z,1006.59
2022-11-05T00:03:43.320Z,1006.60
2022-11-05T00:04:43.203Z,1006.63
2022-11-05T00:05:43.221Z,1006.56
2022-11-05T00:06:43.197Z,1006.57
2022-11-05T00:07:43.159Z,1006.60
2022-11-05T00:08:43.162Z,1006.59
2022-11-05T00:09:43.147Z,1006.67
2022-11-05T00:10:43.141Z,1006.67
2022-11-05T00:11:43.153Z,1006.65
2022-11-05T00:12:43.155Z,1006.62
2022-11-05T00:13:43.119Z,1006.69
2022-11-05T00:14:43.086Z,1006.69
2022-11-05T00:15:43.183Z,1006.75
2022-11-05T00:16:43.105Z,1006.78
2022-11-05T00:17:43.065Z,1006.78
2022-11-05T00:18:43.062Z,1006.77
2022-11-05T00:19:43.053Z,1006.76
2022-11-05T00:20:43.049Z,1006.75
2022-11-05T00:21:43.025Z,1006.76
2022-11-05T00:22:43.010Z,1006.79
2022-11-05T00:23:43.003Z,1006.67
2022-11-05T00:24:42.984Z,1006.79
2022-11-05T00:25:42.995Z,1006.81
2022-11-05T00:26:42.963Z,1006.75
2022-11-05T00:27:42.959Z,1006.80
2022-11-05T00:28:42.937Z,1006.76
2022-11-05T00:29:42.933Z,1006.79
2022-11-05T00:30:42.930Z,1006.85
2022-11-05T00:31:42.956Z,1006.85
2022-11-05T00:32:42.916Z,1006.81
2022-11-05T00:33:42.913Z,1006.86
2022-11-05T00:34:42.883Z,1006.77
2022-11-05T00:35:42.886Z,1006.85
2022-11-05T00:36:42.876Z,1006.82
2022-11-05T00:37:48.735Z,1006.89
2022-11-05T00:38:43.870Z,1006.87
2022-11-05T00:39:42.834Z,1006.92
2022-11-05T00:40:42.819Z,1006.89
2022-11-05T00:41:42.809Z,1006.85
2022-11-05T00:42:42.806Z,1006.86
2022-11-05T00:43:42.844Z,1006.85
2022-11-05T00:44:42.777Z,1006.88
2022-11-05T00:45:42.774Z,1006.90
2022-11-05T00:46:42.758Z,1006.88
2022-11-05T00:47:42.755Z,1006.93
2022-11-05T00:48:42.743Z,1006.93
2022-11-05T00:49:42.737Z,1006.95
2022-11-05T00:50:42.725Z,1006.98
2022-11-05T00:51:42.717Z,1007.00
2022-11-05T00:52:42.698Z,1006.93
2022-11-05T00:53:42.672Z,1006.96
2022-11-05T00:54:42.661Z,1006.99
2022-11-05T00:55:42.674Z,1007.01
2022-11-05T00:56:42.671Z,1007.02
2022-11-05T00:57:42.632Z,1007.00
2022-11-05T00:58:42.621Z,1007.02
2022-11-05T00:59:42.622Z,1007.03
2022-11-05T01:00:42.622Z,1007.02
2022-11-05T01:01:42.709Z,1007.02
2022-11-05T01:02:42.789Z,1007.03
2022-11-05T01:03:45.133Z,1007.01
2022-11-05T01:04:43.557Z,1007.00
2022-11-05T01:05:42.555Z,1007.07
2022-11-05T01:06:42.545Z,1007.12
2022-11-05T01:07:42.538Z,1007.10
2022-11-05T01:08:42.525Z,1007.19
2022-11-05T01:09:42.511Z,1007.16
2022-11-05T01:10:42.543Z,1007.15
2022-11-05T01:11:42.492Z,1007.15
2022-11-05T01:12:42.488Z,1007.20
2022-11-05T01:13:42.485Z,1007.19
2022-11-05T01:14:42.459Z,1007.11
2022-11-05T01:15:42.447Z,1007.13
2022-11-05T01:16:42.447Z,1007.20
2022-11-05T01:17:42.433Z,1007.25
2022-11-05T01:18:42.413Z,1007.23
2022-11-05T01:19:42.428Z,1007.17
2022-11-05T01:20:42.387Z,1007.20
2022-11-05T01:21:42.387Z,1007.18
2022-11-05T01:22:42.393Z,1007.19
2022-11-05T01:23:42.368Z,1007.25
2022-11-05T01:24:42.347Z,1007.22
2022-11-05T01:25:42.344Z,1007.28
2022-11-05T01:26:42.333Z,1007.33
2022-11-05T01:27:42.370Z,1007.34
2022-11-05T01:28:42.367Z,1007.35
2022-11-05T01:29:42.289Z,1007.35
2022-11-05T01:30:42.289Z,1007.34
2022-11-05T01:31:42.269Z,1007.38
2022-11-05T01:32:42.270Z,1007.37
2022-11-05T01:33:42.277Z,1007.38
2022-11-05T01:34:42.232Z,1007.40
2022-11-05T01:35:42.254Z,1007.38
2022-11-05T01:36:42.220Z,1007.38
2022-11-05T01:37:42.214Z,1007.42
2022-11-05T01:38:42.214Z,1007.36
2022-11-05T01:39:42.204Z,1007.43
2022-11-05T01:40:42.185Z,1007.42
2022-11-05T01:41:42.169Z,1007.43
2022-11-05T01:42:42.151Z,1007.47
2022-11-05T01:43:42.162Z,1007.44
2022-11-05T01:44:42.125Z,1007.47
2022-11-05T01:45:42.144Z,1007.56
2022-11-05T01:46:42.114Z,1007.57
2022-11-05T01:47:42.112Z,1007.59
2022-11-05T01:48:42.105Z,1007.64
2022-11-05T01:49:42.093Z,1007.60
2022-11-05T01:50:42.078Z,1007.64
2022-11-05T01:51:42.079Z,1007.61
2022-11-05T01:52:42.043Z,1007.64
2022-11-05T01:53:42.044Z,1007.65
2022-11-05T01:54:42.041Z,1007.63
2022-11-05T01:55:42.058Z,1007.62
2022-11-05T01:56:42.006Z,1007.66
2022-11-05T01:57:41.998Z,1007.64
2022-11-05T01:58:41.994Z,1007.68
2022-11-05T01:59:41.974Z,1007.67
2022-11-05T02:00:41.982Z,1007.72
2022-11-05T02:01:42.072Z,1007.80
2022-11-05T02:02:42.108Z,1007.81
2022-11-05T02:03:41.926Z,1007.73
2022-11-05T02:04:41.933Z,1007.75
2022-11-05T02:05:41.912Z,1007.75
2022-11-05T02:06:41.910Z,1007.77
2022-11-05T02:07:41.912Z,1007.75
2022-11-05T02:08:41.873Z,1007.78
2022-11-05T02:09:41.871Z,1007.82
2022-11-05T02:10:41.876Z,1007.83
2022-11-05T02:11:41.844Z,1007.82
2022-11-05T02:12:41.843Z,1007.80
2022-11-05T02:13:41.865Z,1007.78
2022-11-05T02:14:41.815Z,1007.81
2022-11-05T02:15:41.810Z,1007.82
2022-11-05T02:16:41.799Z,1007.79
2022-11-05T02:17:41.773Z,1007.81
2022-11-05T02:18:41.767Z,1007.79
2022-11-05T02:19:41.760Z,1007.83
2022-11-05T02:20:41.756Z,1007.81
2022-11-05T02:21:41.750Z,1007.83
2022-11-05T02:22:41.728Z,1007.75
2022-11-05T02:23:41.746Z,1007.87
2022-11-05T02:24:41.725Z,1007.84
2022-11-05T02:25:41.714Z,1007.84
2022-11-05T02:26:41.686Z,1007.77
2022-11-05T02:27:41.665Z,1007.78
2022-11-05T02:28:41.679Z,1007.81
2022-11-05T02:29:41.645Z,1007.87
2022-11-05T02:30:41.646Z,1007.83
2022-11-05T02:31:41.623Z,1007.78
2022-11-05T02:32:41.624Z,1007.87
2022-11-05T02:33:41.612Z,1007.88
2022-11-05T02:34:41.602Z,1007.88
2022-11-05T02:35:41.583Z,1007.89
2022-11-05T02:36:41.587Z,1007.92
2022-11-05T02:37:41.562Z,1007.85
2022-11-05T02:38:41.555Z,1007.90
2022-11-05T02:39:41.562Z,1007.95
2022-11-05T02:40:41.555Z,1007.96
2022-11-05T02:41:41.529Z,1007.98
2022-11-05T02:42:41.533Z,1007.94
2022-11-05T02:43:41.502Z,1008.00
2022-11-05T02:44:41.492Z,1007.95
2022-11-05T02:45:41.497Z,1008.04
2022-11-05T02:46:41.476Z,1008.00
2022-11-05T02:47:41.453Z,1007.97
2022-11-05T02:48:41.458Z,1008.01
2022-11-05T02:49:41.452Z,1008.01
2022-11-05T02:50:41.470Z,1008.02
2022-11-05T02:51:41.430Z,1008.07
2022-11-05T02:52:41.401Z,1008.04
2022-11-05T02:53:41.403Z,1008.02
2022-11-05T02:54:41.383Z,1008.01
2022-11-05T02:55:41.383Z,1008.04
2022-11-05T02:56:41.382Z,1008.04
2022-11-05T02:57:41.365Z,1008.04
2022-11-05T02:58:41.376Z,1008.03
2022-11-05T02:59:41.340Z,1008.09
2022-11-05T03:00:41.318Z,1008.10
2022-11-05T03:01:41.573Z,1008.11
2022-11-05T03:02:41.440Z,1008.06
2022-11-05T03:03:41.290Z,1008.13
2022-11-05T03:04:41.287Z,1008.13
2022-11-05T03:05:41.272Z,1008.20
2022-11-05T03:06:41.289Z,1008.18
2022-11-05T03:07:41.241Z,1008.20
2022-11-05T03:08:41.253Z,1008.19
2022-11-05T03:09:41.218Z,1008.24
2022-11-05T03:10:41.204Z,1008.24
2022-11-05T03:11:41.221Z,1008.27
2022-11-05T03:12:41.240Z,1008.29
2022-11-05T03:13:41.181Z,1008.28
2022-11-05T03:14:41.171Z,1008.35
2022-11-05T03:15:41.157Z,1008.31
2022-11-05T03:16:41.157Z,1008.33
2022-11-05T03:17:41.148Z,1008.31
2022-11-05T03:18:41.160Z,1008.30
2022-11-05T03:19:41.143Z,1008.38
2022-11-05T03:20:41.102Z,1008.36
2022-11-05T03:21:41.097Z,1008.34
2022-11-05T03:22:41.088Z,1008.37
2022-11-05T03:23:41.073Z,1008.42
2022-11-05T03:24:41.074Z,1008.35
2022-11-05T03:25:41.085Z,1008.35
2022-11-05T03:26:41.047Z,1008.38
2022-11-05T03:27:41.058Z,1008.43
2022-11-05T03:28:41.025Z,1008.47
2022-11-05T03:29:41.009Z,1008.47
2022-11-05T03:30:41.019Z,1008.40
2022-11-05T03:31:40.987Z,1008.42
2022-11-05T03:32:40.974Z,1008.43
2022-11-05T03:33:40.985Z,1008.48
2022-11-05T03:34:40.953Z,1008.47
2022-11-05T03:35:40.965Z,1008.53
2022-11-05T03:36:40.933Z,1008.53
2022-11-05T03:37:40.922Z,1008.49
2022-11-05T03:38:40.911Z,1008.55
2022-11-05T03:39:40.922Z,1008.48
2022-11-05T03:40:40.925Z,1008.50
2022-11-05T03:41:40.891Z,1008.54
2022-11-05T03:42:40.871Z,1008.55
2022-11-05T03:43:40.872Z,1008.59
2022-11-05T03:44:40.851Z,1008.50
2022-11-05T03:45:40.854Z,1008.52
2022-11-05T03:46:40.860Z,1008.59
2022-11-05T03:47:40.824Z,1008.59
2022-11-05T03:48:40.918Z,1008.60
2022-11-05T03:49:40.822Z,1008.58
2022-11-05T03:50:41.626Z,1008.63
2022-11-05T03:51:40.794Z,1008.67
2022-11-05T03:52:40.783Z,1008.74
2022-11-05T03:53:40.769Z,1008.75
2022-11-05T03:54:40.750Z,1008.81
2022-11-05T03:55:40.734Z,1008.88
2022-11-05T03:56:40.716Z,1008.85
2022-11-05T03:57:40.720Z,1008.83
2022-11-05T03:58:40.698Z,1008.86
2022-11-05T03:59:40.795Z,1008.83
2022-11-05T04:00:40.679Z,1008.91
2022-11-05T04:01:40.819Z,1008.86
2022-11-05T04:02:40.852Z,1008.86
2022-11-05T04:03:40.654Z,1008.83
2022-11-05T04:04:40.640Z,1008.89
2022-11-05T04:05:40.640Z,1008.83
2022-11-05T04:06:40.614Z,1008.95
2022-11-05T04:07:40.631Z,1008.87
2022-11-05T04:08:40.625Z,1008.87
2022-11-05T04:09:40.587Z,1008.87
2022-11-05T04:10:40.581Z,1008.89
2022-11-05T04:11:40.566Z,1008.93
2022-11-05T04:12:40.556Z,1008.91
2022-11-05T04:13:40.541Z,1008.91
2022-11-05T04:14:40.547Z,1008.97
2022-11-05T04:15:40.715Z,1008.95
2022-11-05T04:16:40.512Z,1008.97
2022-11-05T04:17:40.515Z,1008.88
2022-11-05T04:18:40.498Z,1008.99
2022-11-05T04:19:40.505Z,1008.98
2022-11-05T04:20:40.467Z,1009.01
2022-11-05T04:21:40.450Z,1009.02
2022-11-05T04:22:40.443Z,1008.97
2022-11-05T04:23:40.454Z,1009.06
2022-11-05T04:24:40.427Z,1009.07
2022-11-05T04:25:40.430Z,1009.04
2022-11-05T04:26:40.400Z,1009.02
2022-11-05T04:27:40.389Z,1009.08
2022-11-05T04:28:40.380Z,1009.02
2022-11-05T04:29:40.384Z,1009.05
2022-11-05T04:30:40.366Z,1009.08
2022-11-05T04:31:40.371Z,1009.14
2022-11-05T04:32:40.334Z,1009.15
2022-11-05T04:33:40.327Z,1009.12
2022-11-05T04:34:40.332Z,1009.18
2022-11-05T04:35:40.308Z,1009.16
2022-11-05T04:36:40.303Z,1009.19
2022-11-05T04:37:40.281Z,1009.19
2022-11-05T04:38:40.303Z,1009.19
2022-11-05T04:39:40.262Z,1009.19
2022-11-05T04:40:40.260Z,1009.17
2022-11-05T04:41:40.254Z,1009.15
2022-11-05T04:42:40.250Z,1009.15
2022-11-05T04:43:40.218Z,1009.15
2022-11-05T04:44:40.214Z,1009.15
2022-11-05T04:45:40.218Z,1009.18
2022-11-05T04:46:40.188Z,1009.18
2022-11-05T04:47:40.193Z,1009.08
2022-11-05T04:48:40.156Z,1009.15
2022-11-05T04:49:40.178Z,1009.13
2022-11-05T04:50:40.154Z,1009.16
2022-11-05T04:51:40.137Z,1009.19
2022-11-05T04:52:40.110Z,1009.23
2022-11-05T04:53:40.112Z,1009.25
2022-11-05T04:54:40.099Z,1009.24
2022-11-05T04:55:40.108Z,1009.24
2022-11-05T04:56:40.078Z,1009.24
2022-11-05T04:57:40.067Z,1009.28
2022-11-05T04:58:40.059Z,1009.30
2022-11-05T04:59:40.047Z,1009.30
2022-11-05T05:00:40.124Z,1009.27
2022-11-05T05:01:40.137Z,1009.31
2022-11-05T05:02:40.003Z,1009.27
2022-11-05T05:03:40.118Z,1009.26
2022-11-05T05:04:39.991Z,1009.26
2022-11-05T05:05:39.978Z,1009.29
2022-11-05T05:06:39.994Z,1009.28
2022-11-05T05:07:40.011Z,1009.24
2022-11-05T05:08:39.954Z,1009.26
2022-11-05T05:09:39.939Z,1009.23
2022-11-05T05:10:39.932Z,1009.24
2022-11-05T05:11:39.930Z,1009.28
2022-11-05T05:12:39.926Z,1009.28
2022-11-05T05:13:39.899Z,1009.25
2022-11-05T05:14:39.939Z,1009.25
2022-11-05T05:15:39.878Z,1009.31
2022-11-05T05:16:39.880Z,1009.36
2022-11-05T05:17:39.860Z,1009.34
2022-11-05T05:18:45.057Z,1009.34
2022-11-05T05:19:41.024Z,1009.41
2022-11-05T05:20:39.816Z,1009.35
2022-11-05T05:21:39.821Z,1009.40
2022-11-05T05:22:39.825Z,1009.40
2022-11-05T05:23:39.807Z,1009.49
2022-11-05T05:24:39.781Z,1009.34
2022-11-05T05:25:39.785Z,1009.39
2022-11-05T05:26:39.754Z,1009.47
2022-11-05T05:27:39.754Z,1009.51
2022-11-05T05:28:39.734Z,1009.49
2022-11-05T05:29:39.739Z,1009.49
2022-11-05T05:30:39.722Z,1009.49
2022-11-05T05:31:39.708Z,1009.47
2022-11-05T05:32:39.706Z,1009.52
2022-11-05T05:33:39.695Z,1009.47
2022-11-05T05:34:39.683Z,1009.40
2022-11-05T05:35:39.686Z,1009.39
2022-11-05T05:36:39.649Z,1009.43
2022-11-05T05:37:39.680Z,1009.47
2022-11-05T05:38:39.640Z,1009.42
2022-11-05T05:39:39.627Z,1009.51
2022-11-05T05:40:39.610Z,1009.52
2022-11-05T05:41:39.627Z,1009.53
2022-11-05T05:42:43.139Z,1009.55
2022-11-05T05:43:39.575Z,1009.55
2022-11-05T05:44:39.568Z,1009.57
2022-11-05T05:45:47.198Z,1009.55
2022-11-05T05:46:39.649Z,1009.58
2022-11-05T05:47:50.630Z,1009.57
2022-11-05T05:48:39.570Z,1009.65
2022-11-05T05:49:39.542Z,1009.63
2022-11-05T05:50:39.502Z,1009.67
2022-11-05T05:51:39.556Z,1009.73
2022-11-05T05:52:39.482Z,1009.73
2022-11-05T05:53:39.494Z,1009.78
2022-11-05T05:54:42.707Z,1009.67
2022-11-05T05:55:39.455Z,1009.75
2022-11-05T05:56:39.441Z,1009.75
2022-11-05T05:57:39.443Z,1009.74
2022-11-05T05:58:39.431Z,1009.72
2022-11-05T05:59:39.425Z,1009.84
2022-11-05T06:00:39.404Z,1009.78
2022-11-05T06:01:39.560Z,1009.84
2022-11-05T06:02:39.545Z,1009.88
2022-11-05T06:03:39.386Z,1009.84
2022-11-05T06:04:39.361Z,1009.87
2022-11-05T06:05:39.346Z,1009.86
2022-11-05T06:06:39.336Z,1009.88
2022-11-05T06:07:39.356Z,1009.85
2022-11-05T06:08:39.317Z,1009.93
2022-11-05T06:09:39.325Z,1009.96
2022-11-05T06:10:39.353Z,1010.01
2022-11-05T06:11:39.304Z,1009.95
2022-11-05T06:12:39.321Z,1010.03
2022-11-05T06:13:39.294Z,1010.01
2022-11-05T06:14:39.254Z,1010.01
2022-11-05T06:15:39.241Z,1010.07
2022-11-05T06:16:39.230Z,1009.99
2022-11-05T06:17:39.223Z,1010.08
2022-11-05T06:18:39.219Z,1010.08
2022-11-05T06:19:39.187Z,1010.10
2022-11-05T06:20:39.176Z,1010.15
2022-11-05T06:21:39.172Z,1010.18
2022-11-05T06:22:39.166Z,1010.20
2022-11-05T06:23:39.182Z,1010.13
2022-11-05T06:24:39.143Z,1010.29
2022-11-05T06:25:41.371Z,1010.24
2022-11-05T06:26:39.116Z,1010.32
2022-11-05T06:27:39.125Z,1010.27
2022-11-05T06:28:39.160Z,1010.35
2022-11-05T06:29:39.107Z,1010.38
2022-11-05T06:30:39.103Z,1010.36
2022-11-05T06:31:39.088Z,1010.39
2022-11-05T06:32:39.072Z,1010.38
2022-11-05T06:33:39.062Z,1010.36
2022-11-05T06:34:39.062Z,1010.43
2022-11-05T06:35:39.062Z,1010.40
2022-11-05T06:36:39.039Z,1010.44
2022-11-05T06:37:39.006Z,1010.45
2022-11-05T06:38:39.002Z,1010.44
2022-11-05T06:39:39.015Z,1010.50
2022-11-05T06:40:38.975Z,1010.50
2022-11-05T06:42:04.089Z,1010.47
2022-11-05T06:42:39.987Z,1010.49
2022-11-05T06:43:38.947Z,1010.58
2022-11-05T06:44:38.945Z,1010.57
2022-11-05T06:45:38.909Z,1010.59
2022-11-05T06:46:38.910Z,1010.56
2022-11-05T06:47:38.897Z,1010.64
2022-11-05T06:48:38.932Z,1010.61
2022-11-05T06:49:38.912Z,1010.66
2022-11-05T06:50:38.860Z,1010.64
2022-11-05T06:51:38.887Z,1010.66
2022-11-05T06:52:41.223Z,1010.65
2022-11-05T06:53:38.820Z,1010.73
2022-11-05T06:54:46.487Z,1010.75
2022-11-05T06:55:46.426Z,1010.70
2022-11-05T06:56:38.850Z,1010.68
2022-11-05T06:57:38.905Z,1010.71
2022-11-05T06:58:48.698Z,1010.74
2022-11-05T06:59:47.322Z,1010.70
2022-11-05T07:00:47.536Z,1010.70
2022-11-05T07:01:46.496Z,1010.71
2022-11-05T07:02:48.381Z,1010.73
2022-11-05T07:03:38.866Z,1010.71
2022-11-05T07:04:38.785Z,1010.76
2022-11-05T07:05:38.709Z,1010.75
2022-11-05T07:06:38.709Z,1010.74
2022-11-05T07:07:38.687Z,1010.74
2022-11-05T07:08:38.670Z,1010.79
2022-11-05T07:09:38.673Z,1010.81
2022-11-05T07:10:38.792Z,1010.79
2022-11-05T07:11:38.673Z,1010.85
2022-11-05T07:12:38.620Z,1010.83
2022-11-05T07:13:38.619Z,1010.86
2022-11-05T07:14:38.641Z,1010.88
2022-11-05T07:15:38.596Z,1010.89
2022-11-05T07:16:38.603Z,1010.91
2022-11-05T07:17:38.562Z,1010.89
2022-11-05T07:18:47.808Z,1010.94
2022-11-05T07:19:38.690Z,1010.92
2022-11-05T07:20:38.636Z,1010.96
2022-11-05T07:21:38.560Z,1010.96
2022-11-05T07:22:38.581Z,1011.00
2022-11-05T07:23:38.529Z,1010.97
2022-11-05T07:24:38.516Z,1011.00
2022-11-05T07:25:38.497Z,1011.01
2022-11-05T07:26:38.484Z,1011.10
2022-11-05T07:27:38.476Z,1011.10
2022-11-05T07:28:38.477Z,1011.06
2022-11-05T07:29:38.465Z,1011.10
2022-11-05T07:30:38.430Z,1011.14
2022-11-05T07:31:38.431Z,1011.17
2022-11-05T07:32:38.403Z,1011.18
2022-11-05T07:33:38.498Z,1011.14
2022-11-05T07:34:38.449Z,1011.15
2022-11-05T07:35:38.382Z,1011.23
2022-11-05T07:36:38.375Z,1011.17
2022-11-05T07:37:38.386Z,1011.22
2022-11-05T07:38:38.346Z,1011.24
2022-11-05T07:39:47.073Z,1011.26
2022-11-05T07:40:38.466Z,1011.26
2022-11-05T07:41:38.401Z,1011.25
2022-11-05T07:42:38.352Z,1011.32
2022-11-05T07:43:38.315Z,1011.32
2022-11-05T07:44:38.284Z,1011.35
2022-11-05T07:45:38.287Z,1011.35
2022-11-05T07:46:38.304Z,1011.34
2022-11-05T07:47:38.257Z,1011.36
2022-11-05T07:48:47.995Z,1011.41
2022-11-05T07:49:45.945Z,1011.36
2022-11-05T07:50:46.008Z,1011.41
2022-11-05T07:51:45.904Z,1011.44
2022-11-05T07:52:46.406Z,1011.44
2022-11-05T07:54:52.693Z,1011.40
2022-11-05T07:56:01.199Z,1011.40
2022-11-05T07:57:00.280Z,1011.32
2022-11-05T07:58:01.332Z,1011.32
2022-11-05T07:59:02.283Z,1011.22
2022-11-05T08:00:02.508Z,1011.30
2022-11-05T08:02:03.130Z,1011.34
2022-11-05T08:03:10.709Z,1011.31
2022-11-05T08:04:11.542Z,1011.29
2022-11-05T08:05:12.707Z,1011.34
2022-11-05T08:06:11.477Z,1011.35
2022-11-05T08:07:02.923Z,1011.38
2022-11-05T08:08:10.798Z,1011.37
2022-11-05T08:09:02.880Z,1011.38
2022-11-05T08:10:11.359Z,1011.37
2022-11-05T08:12:13.222Z,1011.34
2022-11-05T08:13:20.806Z,1011.33
2022-11-05T08:14:13.165Z,1011.38
2022-11-05T08:15:13.192Z,1011.29
2022-11-05T08:16:13.069Z,1011.39
2022-11-05T08:17:18.209Z,1011.36
2022-11-05T08:18:14.051Z,1011.41
2022-11-05T08:19:13.040Z,1011.37
2022-11-05T08:20:13.079Z,1011.44
2022-11-05T08:21:22.810Z,1011.45
2022-11-05T08:22:13.071Z,1011.48
2022-11-05T08:23:13.385Z,1011.48
2022-11-05T08:24:12.977Z,1011.44
2022-11-05T08:25:21.578Z,1011.43
2022-11-05T08:26:13.035Z,1011.48
2022-11-05T08:27:12.988Z,1011.49
2022-11-05T08:28:13.066Z,1011.52
2022-11-05T08:29:12.960Z,1011.49
2022-11-05T08:30:12.923Z,1011.60
2022-11-05T08:31:12.939Z,1011.53
2022-11-05T08:32:12.909Z,1011.55
2022-11-05T08:33:13.381Z,1011.59
2022-11-05T08:34:12.867Z,1011.56
2022-11-05T08:35:12.860Z,1011.53
2022-11-05T08:36:12.891Z,1011.55
2022-11-05T08:37:12.850Z,1011.59
2022-11-05T08:38:12.831Z,1011.60
2022-11-05T08:39:16.781Z,1011.60
2022-11-05T08:40:12.815Z,1011.65
2022-11-05T08:41:12.810Z,1011.63
2022-11-05T08:42:12.777Z,1011.62
2022-11-05T08:43:13.216Z,1011.66
2022-11-05T08:44:12.770Z,1011.65
2022-11-05T08:45:12.869Z,1011.70
2022-11-05T08:46:12.737Z,1011.71
2022-11-05T08:47:12.725Z,1011.75
2022-11-05T08:48:12.723Z,1011.75
2022-11-05T08:49:12.698Z,1011.73
2022-11-05T08:50:12.736Z,1011.76
2022-11-05T08:51:12.690Z,1011.77
2022-11-05T08:52:12.697Z,1011.82
2022-11-05T08:53:13.048Z,1011.86
2022-11-05T08:54:12.706Z,1011.85
2022-11-05T08:55:12.639Z,1011.86
2022-11-05T08:56:12.652Z,1011.86
2022-11-05T08:57:12.622Z,1011.91
2022-11-05T08:58:12.758Z,1011.91
2022-11-05T08:59:12.597Z,1011.91
2022-11-05T09:00:12.580Z,1011.95
2022-11-05T09:01:12.693Z,1011.98
2022-11-05T09:02:12.743Z,1012.06
2022-11-05T09:03:12.894Z,1012.02
2022-11-05T09:04:12.538Z,1012.00
2022-11-05T09:05:12.534Z,1012.03
2022-11-05T09:06:12.556Z,1012.01
2022-11-05T09:07:12.510Z,1012.05
2022-11-05T09:08:12.504Z,1012.01
2022-11-05T09:09:12.523Z,1012.10
2022-11-05T09:10:12.502Z,1012.02
2022-11-05T09:11:12.485Z,1012.00
2022-11-05T09:12:13.238Z,1012.04
2022-11-05T09:13:18.285Z,1012.11
2022-11-05T09:14:13.460Z,1012.06
2022-11-05T09:15:12.426Z,1012.09
2022-11-05T09:16:12.423Z,1012.11
2022-11-05T09:17:12.437Z,1012.13
2022-11-05T09:18:12.399Z,1012.18
2022-11-05T09:19:12.412Z,1012.20
2022-11-05T09:20:12.372Z,1012.17
2022-11-05T09:21:12.362Z,1012.19
2022-11-05T09:22:12.369Z,1012.25
2022-11-05T09:23:12.809Z,1012.32
2022-11-05T09:24:12.344Z,1012.30
2022-11-05T09:25:12.324Z,1012.22
2022-11-05T09:26:12.306Z,1012.27
2022-11-05T09:27:12.312Z,1012.28
2022-11-05T09:28:16.160Z,1012.27
2022-11-05T09:29:14.523Z,1012.31
2022-11-05T09:30:12.263Z,1012.29
2022-11-05T09:31:12.298Z,1012.26
2022-11-05T09:32:12.233Z,1012.28
2022-11-05T09:33:12.848Z,1012.27
2022-11-05T09:34:12.237Z,1012.35
2022-11-05T09:35:12.219Z,1012.34
2022-11-05T09:36:12.197Z,1012.40
2022-11-05T09:37:12.192Z,1012.35
2022-11-05T09:38:12.211Z,1012.33
2022-11-05T09:39:12.190Z,1012.42
2022-11-05T09:40:12.155Z,1012.42
2022-11-05T09:41:12.166Z,1012.48
2022-11-05T09:42:12.143Z,1012.49
2022-11-05T09:43:12.519Z,1012.44
2022-11-05T09:44:12.125Z,1012.43
2022-11-05T09:45:12.107Z,1012.43
2022-11-05T09:46:12.100Z,1012.43
2022-11-05T09:47:12.106Z,1012.42
2022-11-05T09:48:12.079Z,1012.48
2022-11-05T09:49:12.182Z,1012.48
2022-11-05T09:50:12.196Z,1012.43
2022-11-05T09:51:12.052Z,1012.51
2022-11-05T09:52:12.074Z,1012.50
2022-11-05T09:53:12.372Z,1012.46
2022-11-05T09:54:12.005Z,1012.49
2022-11-05T09:55:12.021Z,1012.46
2022-11-05T09:56:11.981Z,1012.49
2022-11-05T09:57:11.984Z,1012.51
2022-11-05T09:58:11.996Z,1012.49
2022-11-05T09:59:11.957Z,1012.59
2022-11-05T10:00:12.025Z,1012.57
2022-11-05T10:01:12.087Z,1012.58
2022-11-05T10:02:12.062Z,1012.61
2022-11-05T10:03:12.341Z,1012.60
2022-11-05T10:04:11.917Z,1012.61
2022-11-05T10:05:11.970Z,1012.63
2022-11-05T10:06:11.900Z,1012.68
2022-11-05T10:07:11.887Z,1012.61
2022-11-05T10:08:11.884Z,1012.59
2022-11-05T10:09:11.852Z,1012.51
2022-11-05T10:10:11.833Z,1012.55
2022-11-05T10:11:11.825Z,1012.53
2022-11-05T10:12:11.853Z,1012.59
2022-11-05T10:13:12.174Z,1012.54
2022-11-05T10:14:11.808Z,1012.47
2022-11-05T10:15:11.802Z,1012.56
2022-11-05T10:16:11.777Z,1012.51
2022-11-05T10:17:11.761Z,1012.55
2022-11-05T10:18:11.766Z,1012.52
2022-11-05T10:19:11.764Z,1012.55
2022-11-05T10:20:11.734Z,1012.51
2022-11-05T10:21:11.734Z,1012.57
2022-11-05T10:22:11.752Z,1012.57
2022-11-05T10:23:11.930Z,1012.60
2022-11-05T10:24:11.703Z,1012.64
2022-11-05T10:25:11.704Z,1012.65
2022-11-05T10:26:11.671Z,1012.64
2022-11-05T10:27:11.673Z,1012.61
2022-11-05T10:28:11.652Z,1012.65
2022-11-05T10:29:11.626Z,1012.65
2022-11-05T10:30:11.635Z,1012.63
2022-11-05T10:31:11.618Z,1012.58
2022-11-05T10:32:11.602Z,1012.64
2022-11-05T10:33:11.917Z,1012.67
2022-11-05T10:34:11.583Z,1012.65
2022-11-05T10:35:11.586Z,1012.69
2022-11-05T10:36:11.570Z,1012.67
2022-11-05T10:37:11.561Z,1012.73
2022-11-05T10:38:11.549Z,1012.69
2022-11-05T10:39:11.542Z,1012.60
2022-11-05T10:40:11.535Z,1012.66
2022-11-05T10:41:11.500Z,1012.71
2022-11-05T10:42:11.496Z,1012.73
2022-11-05T10:43:11.790Z,1012.66
2022-11-05T10:44:14.747Z,1012.70
2022-11-05T10:45:12.455Z,1012.71
2022-11-05T10:46:11.457Z,1012.73
2022-11-05T10:47:11.438Z,1012.73
2022-11-05T10:48:11.445Z,1012.72
2022-11-05T10:49:11.447Z,1012.69
2022-11-05T10:50:11.403Z,1012.79
2022-11-05T10:51:11.405Z,1012.71
2022-11-05T10:52:11.388Z,1012.70
2022-11-05T10:53:11.771Z,1012.72
2022-11-05T10:54:11.388Z,1012.76
2022-11-05T10:55:11.370Z,1012.79
2022-11-05T10:56:11.345Z,1012.83
2022-11-05T10:57:11.344Z,1012.83
2022-11-05T10:58:11.377Z,1012.85
2022-11-05T10:59:12.381Z,1012.80
2022-11-05T11:00:11.313Z,1012.75
2022-11-05T11:01:11.430Z,1012.80
2022-11-05T11:02:11.301Z,1012.83
2022-11-05T11:03:11.692Z,1012.78
2022-11-05T11:04:11.274Z,1012.82
2022-11-05T11:05:11.250Z,1012.79
2022-11-05T11:06:11.254Z,1012.77
2022-11-05T11:07:11.240Z,1012.82
2022-11-05T11:08:11.225Z,1012.83
2022-11-05T11:09:11.384Z,1012.87
2022-11-05T11:10:11.193Z,1012.76
2022-11-05T11:11:11.205Z,1012.78
2022-11-05T11:12:11.175Z,1012.83
2022-11-05T11:13:11.394Z,1012.88
2022-11-05T11:14:11.159Z,1012.88
2022-11-05T11:15:11.151Z,1012.82
2022-11-05T11:16:11.133Z,1012.89
2022-11-05T11:17:11.124Z,1012.90
2022-11-05T11:18:11.129Z,1012.92
2022-11-05T11:19:11.098Z,1012.93
2022-11-05T11:20:11.089Z,1012.98
2022-11-05T11:21:11.074Z,1012.99
2022-11-05T11:22:11.060Z,1012.93
2022-11-05T11:23:11.337Z,1012.97
2022-11-05T11:24:11.059Z,1012.99
2022-11-05T11:25:11.072Z,1013.03
2022-11-05T11:26:11.028Z,1013.06
2022-11-05T11:27:11.017Z,1013.00
2022-11-05T11:28:11.002Z,1013.00
2022-11-05T11:29:10.994Z,1012.97
2022-11-05T11:30:10.994Z,1012.96
2022-11-05T11:31:10.991Z,1013.01
2022-11-05T11:32:10.973Z,1013.00
2022-11-05T11:33:11.283Z,1013.03
2022-11-05T11:34:10.951Z,1012.98
2022-11-05T11:35:10.938Z,1012.95
2022-11-05T11:36:10.915Z,1012.96
2022-11-05T11:37:14.055Z,1012.92
2022-11-05T11:38:11.897Z,1013.01
2022-11-05T11:39:10.894Z,1013.01
2022-11-05T11:40:11.022Z,1013.00
2022-11-05T11:41:10.895Z,1012.91
2022-11-05T11:42:10.849Z,1012.93
2022-11-05T11:43:20.939Z,1012.95
2022-11-05T11:44:19.395Z,1012.90
2022-11-05T11:45:18.938Z,1013.00
2022-11-05T11:46:18.386Z,1012.96
2022-11-05T11:47:19.353Z,1012.97
2022-11-05T11:48:18.357Z,1012.92
2022-11-05T11:49:19.577Z,1012.99
2022-11-05T11:50:10.820Z,1012.94
2022-11-05T11:51:11.069Z,1012.98
2022-11-05T11:52:10.771Z,1012.94
2022-11-05T11:53:11.043Z,1012.96
2022-11-05T11:54:10.719Z,1012.91
2022-11-05T11:55:10.725Z,1012.91
2022-11-05T11:56:10.795Z,1013.01
2022-11-05T11:57:15.112Z,1012.91
2022-11-05T11:58:10.688Z,1012.93
2022-11-05T11:59:10.681Z,1012.96
2022-11-05T12:00:10.655Z,1012.98
2022-11-05T12:01:10.675Z,1012.93
2022-11-05T12:02:10.765Z,1012.91
2022-11-05T12:03:10.720Z,1012.99
2022-11-05T12:04:10.623Z,1012.96
2022-11-05T12:05:10.607Z,1013.02
2022-11-05T12:06:10.588Z,1012.96
2022-11-05T12:07:10.686Z,1012.98
2022-11-05T12:08:10.569Z,1013.00
2022-11-05T12:09:10.575Z,1012.95